createdAt,value
2017-12-11T00:02:01.974Z,8.80
2017-12-11T00:04:29.548Z,8.80
2017-12-11T00:06:57.140Z,8.80
2017-12-11T00:09:25.474Z,8.80
2017-12-11T00:11:53.072Z,8.80
2017-12-11T00:14:21.405Z,8.80
2017-12-11T00:16:48.986Z,8.80
2017-12-11T00:19:18.055Z,8.80
2017-12-11T00:21:45.645Z,8.80
2017-12-11T00:24:13.218Z,8.80
2017-12-11T00:26:40.805Z,8.70
2017-12-11T00:29:08.385Z,8.80
2017-12-11T00:31:35.991Z,8.80
2017-12-11T00:34:04.339Z,8.70
2017-12-11T00:36:31.902Z,8.70
2017-12-11T00:38:59.499Z,8.80
2017-12-11T00:41:27.075Z,8.80
2017-12-11T00:43:54.672Z,8.80
2017-12-11T00:46:22.237Z,8.80
2017-12-11T00:48:49.826Z,8.80
2017-12-11T00:51:17.395Z,8.80
2017-12-11T00:53:45.745Z,8.80
2017-12-11T00:56:13.314Z,8.70
2017-12-11T00:58:40.907Z,8.80
2017-12-11T01:01:08.479Z,8.90
2017-12-11T01:03:36.070Z,8.80
2017-12-11T01:06:03.633Z,8.80
2017-12-11T01:08:31.224Z,8.80
2017-12-11T01:10:59.567Z,8.80
2017-12-11T01:13:27.161Z,8.70
2017-12-11T01:15:54.735Z,8.80
2017-12-11T01:18:22.327Z,8.80
2017-12-11T01:20:49.896Z,8.80
2017-12-11T01:23:17.485Z,8.80
2017-12-11T01:25:45.055Z,8.80
2017-12-11T01:28:12.648Z,8.80
2017-12-11T01:30:40.987Z,8.80
2017-12-11T01:33:08.575Z,8.80
2017-12-11T01:35:36.142Z,8.80
2017-12-11T01:38:03.734Z,8.80
2017-12-11T01:40:31.307Z,8.80
2017-12-11T01:42:58.874Z,8.80
2017-12-11T01:45:26.463Z,8.90
2017-12-11T01:47:54.033Z,8.90
2017-12-11T01:50:21.621Z,8.90
2017-12-11T01:52:49.186Z,8.90
2017-12-11T01:55:16.779Z,8.90
2017-12-11T01:57:44.356Z,9.00
2017-12-11T02:00:11.946Z,9.00
2017-12-11T02:02:39.514Z,8.90
2017-12-11T02:05:07.103Z,9.00
2017-12-11T02:07:34.677Z,8.90
2017-12-11T02:10:03.079Z,8.80
2017-12-11T02:12:30.654Z,8.80
2017-12-11T02:14:58.243Z,8.80
2017-12-11T02:17:25.809Z,8.90
2017-12-11T02:19:53.391Z,8.90
2017-12-11T02:22:21.727Z,8.70
2017-12-11T02:24:49.322Z,8.70
2017-12-11T02:27:16.889Z,8.70
2017-12-11T02:29:45.252Z,8.50
2017-12-11T02:32:12.818Z,8.50
2017-12-11T02:34:40.422Z,8.50
2017-12-11T02:37:08.043Z,8.50
2017-12-11T02:39:35.624Z,8.50
2017-12-11T02:42:03.215Z,8.50
2017-12-11T02:44:30.799Z,8.50
2017-12-11T02:46:58.396Z,8.50
2017-12-11T02:49:25.967Z,8.60
2017-12-11T02:51:53.564Z,8.50
2017-12-11T02:54:21.133Z,8.50
2017-12-11T02:56:48.735Z,8.50
2017-12-11T02:59:16.311Z,8.40
2017-12-11T03:01:43.902Z,8.30
2017-12-11T03:04:11.470Z,8.30
2017-12-11T03:06:39.059Z,8.40
2017-12-11T03:09:07.398Z,8.40
2017-12-11T03:11:34.989Z,8.40
2017-12-11T03:14:02.559Z,8.40
2017-12-11T03:16:30.916Z,8.30
2017-12-11T03:18:58.483Z,8.30
2017-12-11T03:21:26.839Z,8.20
2017-12-11T03:23:54.406Z,8.30
2017-12-11T03:26:22.000Z,8.20
2017-12-11T03:28:49.561Z,8.20
2017-12-11T03:31:17.147Z,8.20
2017-12-11T03:33:44.722Z,8.20
2017-12-11T03:36:12.318Z,8.30
2017-12-11T03:38:40.657Z,8.20
2017-12-11T03:41:08.267Z,8.20
2017-12-11T03:43:36.607Z,8.10
2017-12-11T03:46:04.174Z,8.10
2017-12-11T03:48:31.768Z,8.10
2017-12-11T03:50:59.336Z,8.20
2017-12-11T03:53:26.929Z,8.10
2017-12-11T03:55:54.506Z,8.10
2017-12-11T03:58:22.095Z,8.20
2017-12-11T04:00:49.661Z,8.20
2017-12-11T04:03:17.251Z,8.10
2017-12-11T04:05:44.826Z,8.20
2017-12-11T04:08:12.419Z,8.10
2017-12-11T04:10:40.755Z,8.00
2017-12-11T04:13:08.354Z,7.90
2017-12-11T04:15:36.687Z,8.00
2017-12-11T04:18:04.395Z,8.00
2017-12-11T04:20:32.735Z,8.00
2017-12-11T04:23:00.330Z,8.00
2017-12-11T04:25:28.657Z,8.00
2017-12-11T04:27:56.238Z,7.90
2017-12-11T04:30:23.807Z,7.90
2017-12-11T04:32:51.402Z,7.80
2017-12-11T04:35:18.973Z,7.80
2017-12-11T04:37:46.579Z,7.80
2017-12-11T04:40:14.163Z,7.90
2017-12-11T04:42:42.518Z,8.10
2017-12-11T04:45:10.098Z,8.10
2017-12-11T04:47:38.466Z,8.00
2017-12-11T04:50:06.042Z,8.00
2017-12-11T04:52:39.839Z,8.20
2017-12-11T04:55:07.489Z,8.10
2017-12-11T04:57:35.053Z,8.10
2017-12-11T05:00:02.648Z,8.00
2017-12-11T05:02:30.211Z,7.90
2017-12-11T05:04:57.810Z,7.80
2017-12-11T05:07:25.380Z,7.70
2017-12-11T05:09:52.970Z,7.80
2017-12-11T05:12:21.300Z,7.80
2017-12-11T05:14:48.953Z,7.80
2017-12-11T05:17:16.522Z,7.80
2017-12-11T05:19:44.111Z,7.70
2017-12-11T05:22:12.447Z,7.70
2017-12-11T05:24:40.030Z,7.70
2017-12-11T05:27:07.601Z,7.80
2017-12-11T05:29:35.972Z,7.80
2017-12-11T05:32:03.546Z,7.80
2017-12-11T05:34:31.910Z,7.80
2017-12-11T05:36:59.479Z,7.80
2017-12-11T05:39:27.082Z,7.80
2017-12-11T05:41:54.655Z,7.80
2017-12-11T05:44:22.243Z,7.80
2017-12-11T05:46:49.820Z,7.80
2017-12-11T05:49:17.417Z,7.80
2017-12-11T05:51:44.983Z,7.80
2017-12-11T05:54:12.570Z,7.70
2017-12-11T05:56:40.138Z,7.70
2017-12-11T05:59:07.727Z,7.70
2017-12-11T06:01:36.054Z,7.80
2017-12-11T06:04:03.726Z,7.80
2017-12-11T06:06:31.309Z,7.90
2017-12-11T06:08:58.879Z,7.90
2017-12-11T06:11:27.239Z,7.80
2017-12-11T06:13:54.838Z,7.80
2017-12-11T06:16:22.425Z,7.80
2017-12-11T06:18:50.015Z,7.80
2017-12-11T06:21:17.610Z,7.80
2017-12-11T06:23:45.187Z,7.80
2017-12-11T06:26:13.546Z,7.90
2017-12-11T06:28:41.120Z,7.90
2017-12-11T06:31:08.719Z,7.90
2017-12-11T06:33:36.293Z,8.00
2017-12-11T06:36:04.651Z,7.90
2017-12-11T06:38:32.227Z,7.90
2017-12-11T06:40:59.818Z,7.90
2017-12-11T06:43:27.391Z,8.00
2017-12-11T06:45:54.988Z,7.90
2017-12-11T06:48:22.562Z,8.00
2017-12-11T06:50:50.159Z,8.00
2017-12-11T06:53:17.727Z,7.90
2017-12-11T06:55:45.318Z,8.00
2017-12-11T06:58:12.882Z,8.10
2017-12-11T07:00:40.466Z,8.10
2017-12-11T07:03:08.797Z,8.00
2017-12-11T07:05:36.382Z,7.90
2017-12-11T07:08:03.951Z,7.90
2017-12-11T07:10:32.317Z,7.90
2017-12-11T07:12:59.896Z,7.90
2017-12-11T07:15:28.258Z,7.90
2017-12-11T07:17:55.850Z,7.90
2017-12-11T07:20:23.427Z,8.00
2017-12-11T07:22:51.055Z,8.00
2017-12-11T07:25:19.389Z,7.90
2017-12-11T07:27:46.987Z,8.00
2017-12-11T07:30:15.327Z,8.00
2017-12-11T07:32:42.919Z,7.90
2017-12-11T07:35:11.259Z,8.00
2017-12-11T07:37:38.856Z,8.00
2017-12-11T07:40:07.202Z,8.00
2017-12-11T07:42:34.812Z,8.00
2017-12-11T07:45:02.410Z,8.10
2017-12-11T07:47:30.011Z,8.00
2017-12-11T07:49:57.589Z,8.10
2017-12-11T07:52:25.945Z,8.10
2017-12-11T07:54:53.514Z,8.10
2017-12-11T07:57:21.110Z,8.20
2017-12-11T07:59:49.492Z,8.10
2017-12-11T08:02:17.083Z,8.10
2017-12-11T08:04:44.662Z,8.10
2017-12-11T08:07:12.257Z,8.10
2017-12-11T08:09:39.830Z,8.10
2017-12-11T08:12:07.427Z,8.20
2017-12-11T08:14:35.004Z,8.30
2017-12-11T08:17:03.459Z,8.40
2017-12-11T08:19:31.026Z,8.30
2017-12-11T08:21:58.622Z,8.40
2017-12-11T08:24:26.194Z,8.50
2017-12-11T08:26:53.786Z,8.50
2017-12-11T08:29:21.359Z,8.60
2017-12-11T08:31:48.954Z,8.70
2017-12-11T08:34:17.281Z,8.70
2017-12-11T08:36:44.840Z,8.70
2017-12-11T08:39:12.430Z,8.70
2017-12-11T08:41:40.007Z,8.70
2017-12-11T08:44:08.371Z,8.80
2017-12-11T08:46:36.703Z,8.70
2017-12-11T08:49:04.295Z,8.70
2017-12-11T08:51:31.867Z,8.80
2017-12-11T08:54:00.222Z,8.80
2017-12-11T08:56:27.791Z,8.80
2017-12-11T08:58:55.416Z,8.80
2017-12-11T09:01:22.966Z,8.80
2017-12-11T09:03:51.317Z,8.80
2017-12-11T09:06:18.897Z,8.80
2017-12-11T09:08:46.486Z,8.80
2017-12-11T09:11:14.058Z,8.90
2017-12-11T09:13:41.660Z,8.90
2017-12-11T09:16:09.234Z,8.90
2017-12-11T09:18:36.823Z,8.90
2017-12-11T09:21:04.395Z,8.90
2017-12-11T09:23:31.999Z,9.00
2017-12-11T09:25:59.575Z,9.00
2017-12-11T09:28:27.162Z,9.00
2017-12-11T09:30:54.742Z,8.90
2017-12-11T09:33:22.341Z,9.00
2017-12-11T09:35:49.916Z,8.90
2017-12-11T09:38:17.524Z,8.90
2017-12-11T09:40:45.094Z,9.00
2017-12-11T09:43:12.702Z,9.00
2017-12-11T09:45:40.270Z,9.00
2017-12-11T09:48:07.859Z,9.00
2017-12-11T09:50:35.436Z,9.00
2017-12-11T09:53:03.776Z,9.10
2017-12-11T09:55:31.371Z,9.10
2017-12-11T09:57:59.706Z,9.10
2017-12-11T10:00:27.303Z,9.10
2017-12-11T10:02:54.866Z,9.20
2017-12-11T10:05:23.226Z,9.10
2017-12-11T10:07:50.790Z,9.10
2017-12-11T10:10:19.158Z,9.20
2017-12-11T10:12:46.730Z,9.20
2017-12-11T10:15:15.085Z,9.20
2017-12-11T10:17:42.682Z,9.20
2017-12-11T10:20:10.472Z,9.20
2017-12-11T10:22:38.037Z,9.20
2017-12-11T10:25:05.627Z,9.20
2017-12-11T10:27:33.194Z,9.10
2017-12-11T10:30:00.785Z,9.20
2017-12-11T10:32:28.352Z,9.20
2017-12-11T10:34:55.943Z,9.30
2017-12-11T10:37:23.518Z,9.30
2017-12-11T10:39:51.118Z,9.30
2017-12-11T10:42:19.442Z,9.30
2017-12-11T10:44:47.036Z,9.30
2017-12-11T10:47:14.614Z,9.30
2017-12-11T10:49:42.201Z,9.30
2017-12-11T10:52:09.762Z,9.30
2017-12-11T10:54:37.351Z,9.30
2017-12-11T10:57:04.993Z,9.30
2017-12-11T10:59:32.578Z,9.30
2017-12-11T11:02:00.146Z,9.30
2017-12-11T11:04:28.589Z,9.40
2017-12-11T11:06:56.184Z,9.40
2017-12-11T11:09:23.758Z,9.40
2017-12-11T11:11:51.447Z,9.40
2017-12-11T11:14:19.018Z,9.40
2017-12-11T11:16:46.607Z,9.30
2017-12-11T11:19:14.297Z,9.30
2017-12-11T11:21:41.887Z,9.40
2017-12-11T11:24:09.459Z,9.40
2017-12-11T11:26:37.069Z,9.50
2017-12-11T11:29:05.444Z,9.50
2017-12-11T11:31:33.113Z,9.50
2017-12-11T11:34:00.689Z,9.50
2017-12-11T11:36:28.294Z,9.50
2017-12-11T11:38:55.869Z,9.60
2017-12-11T11:41:23.482Z,9.60
2017-12-11T11:43:51.042Z,9.60
2017-12-11T11:46:18.630Z,9.60
2017-12-11T11:48:46.203Z,9.60
2017-12-11T11:51:13.797Z,9.70
2017-12-11T11:53:42.122Z,9.70
2017-12-11T11:56:09.708Z,9.70
2017-12-11T11:58:38.363Z,9.70
2017-12-11T12:01:05.963Z,9.80
2017-12-11T12:03:33.530Z,9.80
2017-12-11T12:06:01.886Z,9.80
2017-12-11T12:08:29.475Z,9.80
2017-12-11T12:10:57.114Z,9.80
2017-12-11T12:13:24.670Z,9.80
2017-12-11T12:15:52.273Z,9.90
2017-12-11T12:18:19.841Z,10.00
2017-12-11T12:20:47.419Z,10.00
2017-12-11T12:23:15.010Z,10.00
2017-12-11T12:25:42.578Z,9.90
2017-12-11T12:28:10.959Z,10.00
2017-12-11T12:30:38.540Z,9.90
2017-12-11T12:33:06.142Z,10.00
2017-12-11T12:35:33.719Z,10.00
2017-12-11T12:38:01.318Z,10.00
2017-12-11T12:40:28.903Z,10.10
2017-12-11T12:42:56.502Z,10.10
2017-12-11T12:45:24.079Z,10.20
2017-12-11T12:47:51.674Z,10.20
2017-12-11T12:50:19.251Z,10.20
2017-12-11T12:52:46.870Z,10.10
2017-12-11T12:55:14.455Z,10.00
2017-12-11T12:57:42.652Z,10.00
2017-12-11T13:00:10.227Z,10.00
2017-12-11T13:02:37.827Z,10.00
2017-12-11T13:05:05.404Z,10.00
2017-12-11T13:07:33.007Z,10.10
2017-12-11T13:10:00.587Z,10.00
2017-12-11T13:12:28.951Z,9.90
2017-12-11T13:14:57.283Z,9.80
2017-12-11T13:17:24.899Z,9.80
2017-12-11T13:19:53.238Z,9.70
2017-12-11T13:22:20.858Z,9.70
2017-12-11T13:24:48.432Z,9.70
2017-12-11T13:27:16.041Z,9.80
2017-12-11T13:29:43.606Z,9.80
2017-12-11T13:32:11.175Z,9.80
2017-12-11T13:34:39.531Z,9.80
2017-12-11T13:37:07.102Z,9.80
2017-12-11T13:39:34.703Z,9.80
2017-12-11T13:42:03.038Z,9.60
2017-12-11T13:44:30.627Z,9.60
2017-12-11T13:46:58.194Z,9.60
2017-12-11T13:49:25.786Z,9.60
2017-12-11T13:51:53.372Z,9.70
2017-12-11T13:54:21.722Z,9.50
2017-12-11T13:56:49.291Z,9.50
2017-12-11T13:59:16.879Z,9.50
2017-12-11T14:01:45.215Z,9.40
2017-12-11T14:04:12.813Z,9.40
2017-12-11T14:06:40.382Z,9.40
2017-12-11T14:09:07.970Z,9.40
2017-12-11T14:11:35.543Z,9.30
2017-12-11T14:14:03.143Z,9.40
2017-12-11T14:16:31.482Z,9.30
2017-12-11T14:18:59.079Z,9.30
2017-12-11T14:21:26.651Z,9.30
2017-12-11T14:23:55.016Z,9.30
2017-12-11T14:26:22.641Z,9.30
2017-12-11T14:28:50.240Z,9.20
2017-12-11T14:31:18.618Z,9.20
2017-12-11T14:33:46.214Z,9.20
2017-12-11T14:36:13.790Z,9.10
2017-12-11T14:38:41.379Z,9.00
2017-12-11T14:41:08.968Z,9.10
2017-12-11T14:43:36.558Z,9.00
2017-12-11T14:46:04.903Z,9.00
2017-12-11T14:48:32.475Z,8.90
2017-12-11T14:51:00.071Z,9.00
2017-12-11T14:53:27.634Z,8.90
2017-12-11T14:55:55.320Z,8.80
2017-12-11T14:58:23.663Z,8.60
2017-12-11T15:00:51.251Z,8.60
2017-12-11T15:03:18.824Z,8.60
2017-12-11T15:05:46.415Z,8.60
2017-12-11T15:08:13.991Z,8.60
2017-12-11T15:10:41.579Z,8.50
2017-12-11T15:13:09.695Z,8.40
2017-12-11T15:15:37.347Z,8.30
2017-12-11T15:18:04.914Z,8.30
2017-12-11T15:20:32.493Z,8.40
2017-12-11T15:23:00.071Z,8.40
2017-12-11T15:25:27.666Z,8.30
2017-12-11T15:27:56.019Z,8.40
2017-12-11T15:30:23.619Z,8.40
2017-12-11T15:32:51.207Z,8.30
2017-12-11T15:35:19.627Z,8.30
2017-12-11T15:37:47.175Z,8.30
2017-12-11T15:40:14.775Z,8.20
2017-12-11T15:42:42.357Z,8.30
2017-12-11T15:45:09.954Z,8.30
2017-12-11T15:47:37.518Z,8.40
2017-12-11T15:50:05.112Z,8.30
2017-12-11T15:52:33.447Z,8.40
2017-12-11T15:55:01.096Z,8.30
2017-12-11T15:57:28.673Z,8.40
2017-12-11T15:59:56.390Z,8.40
2017-12-11T16:02:23.982Z,8.40
2017-12-11T16:04:51.543Z,8.40
2017-12-11T16:07:19.143Z,8.40
2017-12-11T16:09:47.485Z,8.40
2017-12-11T16:12:15.079Z,8.40
2017-12-11T16:14:43.564Z,8.40
2017-12-11T16:17:11.186Z,8.40
2017-12-11T16:19:38.866Z,8.40
2017-12-11T16:22:07.226Z,8.40
2017-12-11T16:24:34.795Z,8.50
2017-12-11T16:27:02.382Z,8.50
2017-12-11T16:29:30.723Z,8.50
2017-12-11T16:31:58.316Z,8.40
2017-12-11T16:34:26.682Z,8.50
2017-12-11T16:36:54.299Z,8.50
2017-12-11T16:39:21.873Z,8.50
2017-12-11T16:41:49.476Z,8.60
2017-12-11T16:44:17.050Z,8.60
2017-12-11T16:46:44.642Z,8.60
2017-12-11T16:49:12.212Z,8.60
2017-12-11T16:51:39.807Z,8.60
2017-12-11T16:54:07.383Z,8.60
2017-12-11T16:56:34.975Z,8.60
2017-12-11T16:59:04.603Z,8.70
2017-12-11T17:01:32.200Z,8.70
2017-12-11T17:03:59.765Z,8.70
2017-12-11T17:06:27.351Z,8.70
2017-12-11T17:08:54.914Z,8.70
2017-12-11T17:11:23.304Z,8.70
2017-12-11T17:13:50.871Z,8.70
2017-12-11T17:16:18.442Z,8.70
2017-12-11T17:18:46.039Z,8.70
2017-12-11T17:21:13.612Z,8.70
2017-12-11T17:23:41.203Z,8.70
2017-12-11T17:26:08.779Z,8.70
2017-12-11T17:28:36.370Z,8.70
2017-12-11T17:31:03.938Z,8.70
2017-12-11T17:33:31.526Z,8.80
2017-12-11T17:35:59.094Z,8.80
2017-12-11T17:38:26.687Z,8.80
2017-12-11T17:40:54.263Z,8.80
2017-12-11T17:43:21.858Z,8.80
2017-12-11T17:45:50.199Z,8.80
2017-12-11T17:48:18.564Z,8.80
2017-12-11T17:50:46.903Z,8.80
2017-12-11T17:53:14.501Z,8.80
2017-12-11T17:55:42.061Z,8.80
2017-12-11T17:58:10.427Z,8.80
2017-12-11T18:00:38.024Z,8.80
2017-12-11T18:03:05.701Z,8.80
2017-12-11T18:05:33.301Z,8.80
2017-12-11T18:08:00.899Z,8.80
2017-12-11T18:10:28.463Z,8.90
2017-12-11T18:12:56.050Z,8.80
2017-12-11T18:15:23.612Z,8.80
2017-12-11T18:17:51.208Z,8.80
2017-12-11T18:20:18.779Z,8.80
2017-12-11T18:22:46.379Z,8.80
2017-12-11T18:25:13.948Z,8.90
2017-12-11T18:27:41.515Z,8.90
2017-12-11T18:30:09.107Z,8.80
2017-12-11T18:32:36.684Z,8.80
2017-12-11T18:35:04.284Z,8.80
2017-12-11T18:37:31.850Z,8.80
2017-12-11T18:39:59.437Z,8.80
2017-12-11T18:42:27.775Z,8.80
2017-12-11T18:44:55.368Z,8.80
2017-12-11T18:47:22.938Z,8.80
2017-12-11T18:49:51.308Z,8.70
2017-12-11T18:52:18.875Z,8.80
2017-12-11T18:54:47.234Z,8.70
2017-12-11T18:57:16.989Z,8.70
2017-12-11T18:59:45.435Z,8.80
2017-12-11T19:02:13.008Z,8.80
2017-12-11T19:04:41.368Z,8.70
2017-12-11T19:07:08.939Z,8.70
2017-12-11T19:09:37.295Z,8.80
2017-12-11T19:12:04.875Z,8.70
2017-12-11T19:14:33.239Z,8.80
2017-12-11T19:17:00.802Z,8.80
2017-12-11T19:19:28.395Z,8.80
2017-12-11T19:21:55.972Z,8.80
2017-12-11T19:24:23.583Z,8.70
2017-12-11T19:26:51.162Z,8.80
2017-12-11T19:29:18.756Z,8.80
2017-12-11T19:31:46.314Z,8.80
2017-12-11T19:34:13.970Z,8.70
2017-12-11T19:36:41.534Z,8.70
2017-12-11T19:39:09.135Z,8.70
2017-12-11T19:41:36.702Z,8.80
2017-12-11T19:44:05.083Z,8.70
2017-12-11T19:46:33.351Z,8.70
2017-12-11T19:49:01.691Z,8.80
2017-12-11T19:51:29.278Z,8.80
2017-12-11T19:53:56.842Z,8.80
2017-12-11T19:56:25.394Z,8.80
2017-12-11T19:58:53.158Z,8.80
2017-12-11T20:01:20.770Z,8.80
2017-12-11T20:03:49.248Z,8.80
2017-12-11T20:06:17.602Z,8.80
2017-12-11T20:08:46.187Z,8.80
2017-12-11T20:11:13.779Z,8.90
2017-12-11T20:13:41.415Z,8.90
2017-12-11T20:16:09.018Z,8.90
2017-12-11T20:18:36.583Z,8.80
2017-12-11T20:21:04.175Z,8.80
2017-12-11T20:23:31.747Z,8.80
2017-12-11T20:26:00.106Z,8.80
2017-12-11T20:28:27.674Z,8.80
2017-12-11T20:30:55.274Z,8.80
2017-12-11T20:33:22.850Z,8.80
2017-12-11T20:35:50.438Z,8.80
2017-12-11T20:38:18.007Z,8.90
2017-12-11T20:40:45.594Z,8.80
2017-12-11T20:43:13.926Z,8.80
2017-12-11T20:45:41.523Z,8.80
2017-12-11T20:48:09.858Z,8.80
2017-12-11T20:50:37.433Z,8.80
2017-12-11T20:53:05.027Z,8.80
2017-12-11T20:55:33.362Z,8.80
2017-12-11T20:58:01.718Z,8.80
2017-12-11T21:00:29.291Z,8.80
2017-12-11T21:02:57.039Z,8.80
2017-12-11T21:05:24.618Z,8.90
2017-12-11T21:07:52.214Z,8.80
2017-12-11T21:10:19.788Z,8.90
2017-12-11T21:12:47.386Z,8.80
2017-12-11T21:15:14.963Z,8.80
2017-12-11T21:17:42.558Z,8.90
2017-12-11T21:20:10.228Z,8.80
2017-12-11T21:22:37.876Z,8.90
2017-12-11T21:25:07.065Z,8.90
2017-12-11T21:27:34.670Z,8.90
2017-12-11T21:30:03.009Z,9.00
2017-12-11T21:32:30.600Z,8.90
2017-12-11T21:34:58.166Z,8.90
2017-12-11T21:37:25.762Z,8.90
2017-12-11T21:39:53.337Z,8.90
2017-12-11T21:42:20.921Z,9.00
2017-12-11T21:44:48.501Z,9.00
2017-12-11T21:47:16.095Z,9.00
2017-12-11T21:49:43.658Z,9.00
2017-12-11T21:52:11.251Z,9.00
2017-12-11T21:54:38.828Z,9.00
2017-12-11T21:57:06.422Z,9.00
2017-12-11T21:59:33.996Z,9.00
2017-12-11T22:02:01.571Z,9.10
2017-12-11T22:04:29.926Z,9.10
2017-12-11T22:06:57.494Z,9.10
2017-12-11T22:09:25.103Z,9.10
2017-12-11T22:11:52.667Z,9.10
2017-12-11T22:14:20.250Z,9.10
2017-12-11T22:16:47.825Z,9.10
2017-12-11T22:19:15.419Z,9.10
2017-12-11T22:21:43.751Z,9.20
2017-12-11T22:24:11.344Z,9.10
2017-12-11T22:26:38.914Z,9.10
2017-12-11T22:29:07.273Z,9.20
2017-12-11T22:31:35.672Z,9.20
2017-12-11T22:34:03.296Z,9.20
2017-12-11T22:36:30.863Z,9.20
2017-12-11T22:38:58.458Z,9.20
2017-12-11T22:41:26.041Z,9.20
2017-12-11T22:43:53.630Z,9.20
2017-12-11T22:46:21.212Z,9.20
2017-12-11T22:48:48.802Z,9.30
2017-12-11T22:51:16.372Z,9.30
2017-12-11T22:53:43.963Z,9.30
2017-12-11T22:56:11.530Z,9.30
2017-12-11T22:58:39.118Z,9.30
2017-12-11T23:01:06.683Z,9.30
2017-12-11T23:03:35.038Z,9.30
2017-12-11T23:06:03.369Z,9.30
2017-12-11T23:08:30.939Z,9.30
2017-12-11T23:10:58.534Z,9.30
2017-12-11T23:13:26.871Z,9.40
2017-12-11T23:15:54.457Z,9.40
2017-12-11T23:18:22.027Z,9.40
2017-12-11T23:20:49.614Z,9.40
2017-12-11T23:23:17.186Z,9.40
2017-12-11T23:25:44.776Z,9.30
2017-12-11T23:28:12.346Z,9.30
2017-12-11T23:30:39.934Z,9.30
2017-12-11T23:33:08.277Z,9.30
2017-12-11T23:35:35.867Z,9.30
2017-12-11T23:38:03.435Z,9.30
2017-12-11T23:40:31.796Z,9.20
2017-12-11T23:42:59.368Z,9.30
2017-12-11T23:45:26.966Z,9.10
2017-12-11T23:47:54.530Z,9.10
2017-12-11T23:50:22.122Z,9.10
2017-12-11T23:52:49.708Z,9.10
2017-12-11T23:55:18.054Z,9.00
2017-12-11T23:57:45.622Z,9.00
